Time;durP1;ratioP1;P1;durP2;ratioP2;P2;SDS_P1;SDS_P2;PMS_P1;PMS_P2;Temp;Humidity;BMP_temperature;BMP_pressure;BME280_temperature;BME280_humidity;BME280_pressure;Samples;Min_cycle;Max_cycle;Signal;HPM_P1;HPM_P2
2022/01/17 00:01:19;;;;;;;;;;;;;;;17.03;50.17;103179.88;5063858;28;19925;-40
2022/01/17 00:03:45;;;;;;;;;;;;;;;17.01;50.23;103182.66;5063774;28;19940;-39
2022/01/17 00:06:12;;;;;;;;;;;;;;;17.01;50.32;103176.44;5063031;28;19932;-40
2022/01/17 00:08:42;;;;;;;;;;;;;;;17.00;50.36;103186.28;5062114;28;19935;-42
2022/01/17 00:11:09;;;;;;;;;;;;;;;16.99;50.44;103176.50;5065331;28;19938;-41
2022/01/17 00:13:35;;;;;;;;;;;;;;;16.99;50.58;103189.91;5064055;28;20032;-37
2022/01/17 00:16:25;;;;;;;;;;;;;;;16.99;50.28;103194.41;5062875;28;19934;-40
2022/01/17 00:21:18;;;;;;;;;;;;;;;16.98;50.78;103192.69;5063214;28;21079;-39
2022/01/17 00:23:44;;;;;;;;;;;;;;;16.96;50.08;103198.09;5065319;28;19928;-41
2022/01/17 00:26:11;;;;;;;;;;;;;;;16.97;50.89;103201.69;5063763;28;19929;-37
2022/01/17 00:28:37;;;;;;;;;;;;;;;16.97;50.05;103207.03;5071297;28;19931;-41
2022/01/17 00:31:05;;;;;;;;;;;;;;;16.95;50.28;103206.25;5065359;28;19924;-38
2022/01/17 00:33:32;;;;;;;;;;;;;;;16.95;49.84;103196.38;5062543;28;19933;-41
2022/01/17 00:35:59;;;;;;;;;;;;;;;16.94;50.28;103194.69;5061798;28;19924;-41
2022/01/17 00:38:25;;;;;;;;;;;;;;;16.93;49.98;103187.59;5063734;28;19935;-38
2022/01/17 00:40:52;;;;;;;;;;;;;;;16.92;51.16;103188.53;5064927;28;19925;-38
2022/01/17 00:43:18;;;;;;;;;;;;;;;16.93;50.23;103192.09;5062170;28;19924;-37
2022/01/17 00:45:45;;;;;;;;;;;;;;;16.90;50.56;103193.13;5061133;28;20247;-41
2022/01/17 00:48:12;;;;;;;;;;;;;;;16.91;50.78;103202.03;5068174;28;19939;-38
2022/01/17 00:50:39;;;;;;;;;;;;;;;16.91;50.65;103202.03;5066497;28;19924;-42
2022/01/17 00:53:07;;;;;;;;;;;;;;;16.89;51.03;103198.59;5065758;28;19932;-39
2022/01/17 00:55:34;;;;;;;;;;;;;;;16.89;50.37;103194.09;5067421;28;19933;-40
2022/01/17 00:58:00;;;;;;;;;;;;;;;16.89;50.27;103190.56;5065609;28;19925;-41
2022/01/17 01:00:27;;;;;;;;;;;;;;;16.87;50.53;103179.91;5068317;28;20382;-38
2022/01/17 01:02:53;;;;;;;;;;;;;;;16.88;50.69;103178.94;5069921;28;20350;-39
2022/01/17 01:05:20;;;;;;;;;;;;;;;16.88;50.64;103180.75;5066693;28;19924;-40
2022/01/17 01:07:46;;;;;;;;;;;;;;;16.87;50.57;103190.63;5065537;28;19931;-40
2022/01/17 01:10:13;;;;;;;;;;;;;;;16.87;50.71;103185.25;5069420;28;19935;-38
2022/01/17 01:12:41;;;;;;;;;;;;;;;16.87;50.56;103179.03;5062531;28;19943;-41
2022/01/17 01:15:12;;;;;;;;;;;;;;;16.86;50.48;103188.91;5061112;28;20285;-40
2022/01/17 01:17:51;;;;;;;;;;;;;;;16.85;49.94;103189.00;5065093;28;19943;-41
2022/01/17 01:28:21;;;;;;;;;;;;;;;16.83;50.54;103206.97;5065840;28;19928;-37
2022/01/17 01:30:51;;;;;;;;;;;;;;;16.82;50.53;103207.91;5063971;28;19924;-38
2022/01/17 01:33:29;;;;;;;;;;;;;;;16.82;50.70;103215.94;5065728;28;20267;-37
2022/01/17 01:36:03;;;;;;;;;;;;;;;16.82;50.44;103218.63;5064643;28;19932;-37
2022/01/17 01:38:30;;;;;;;;;;;;;;;16.81;51.23;103216.91;5066362;28;19982;-38
2022/01/17 01:40:56;;;;;;;;;;;;;;;16.80;50.70;103225.88;5067079;28;19932;-40
2022/01/17 01:43:23;;;;;;;;;;;;;;;16.80;50.34;103215.16;5066612;28;19929;-37
2022/01/17 01:45:51;;;;;;;;;;;;;;;16.78;50.57;103232.19;5070615;28;19925;-39
2022/01/17 01:48:20;;;;;;;;;;;;;;;16.78;50.54;103242.03;5069000;28;19932;-39
2022/01/17 01:50:46;;;;;;;;;;;;;;;16.76;50.40;103233.22;5063023;28;19935;-39
2022/01/17 01:53:13;;;;;;;;;;;;;;;16.75;50.81;103224.31;5069388;28;19931;-37
2022/01/17 01:55:39;;;;;;;;;;;;;;;16.75;51.13;103221.63;5067281;28;19932;-39
2022/01/17 01:58:05;;;;;;;;;;;;;;;16.74;50.20;103224.41;5064059;28;19924;-38
2022/01/17 02:00:32;;;;;;;;;;;;;;;16.71;50.12;103225.41;5064627;28;20359;-39
2022/01/17 02:02:58;;;;;;;;;;;;;;;16.72;50.34;103224.50;5063718;28;19971;-37
2022/01/17 02:05:25;;;;;;;;;;;;;;;16.71;51.26;103227.22;5061142;28;19928;-38
2022/01/17 02:07:51;;;;;;;;;;;;;;;16.70;50.63;103215.66;5064437;28;19931;-38
2022/01/17 02:10:18;;;;;;;;;;;;;;;16.69;50.14;103211.25;5062725;28;19928;-37
2022/01/17 02:12:44;;;;;;;;;;;;;;;16.69;50.18;103207.72;5066158;28;19933;-36
2022/01/17 02:15:12;;;;;;;;;;;;;;;16.67;50.48;103205.13;5065092;28;20021;-36
2022/01/17 02:17:53;;;;;;;;;;;;;;;16.66;51.26;103211.44;5058764;28;19978;-37
2022/01/17 02:20:21;;;;;;;;;;;;;;;16.65;51.23;103215.06;5065945;28;19929;-36
2022/01/17 02:22:49;;;;;;;;;;;;;;;16.63;51.29;103221.44;5061192;28;19933;-38
2022/01/17 02:25:15;;;;;;;;;;;;;;;16.63;50.66;103224.13;5063945;28;19928;-37
2022/01/17 02:27:42;;;;;;;;;;;;;;;16.60;51.16;103225.16;5063997;28;19933;-38
2022/01/17 02:30:11;;;;;;;;;;;;;;;16.61;51.47;103220.69;5061137;28;20355;-40
2022/01/17 02:32:38;;;;;;;;;;;;;;;16.60;50.70;103237.69;5063856;28;19933;-37
2022/01/17 02:35:37;;;;;;;;;;;;;;;16.59;51.16;103244.84;5060601;28;19928;-39
2022/01/17 02:38:03;;;;;;;;;;;;;;;16.58;50.66;103242.25;5015552;28;19930;-37
2022/01/17 02:40:29;;;;;;;;;;;;;;;16.58;51.33;103236.91;5064597;28;19928;-38
2022/01/17 02:43:01;;;;;;;;;;;;;;;16.57;50.86;103229.84;5060751;28;19924;-39
2022/01/17 02:45:33;;;;;;;;;;;;;;;16.54;51.41;103231.72;5063158;28;19932;-38
2022/01/17 02:48:01;;;;;;;;;;;;;;;16.56;51.51;103236.13;5063122;28;19972;-39
2022/01/17 02:50:28;;;;;;;;;;;;;;;16.54;51.30;103237.06;5062791;28;20028;-40
2022/01/17 02:52:58;;;;;;;;;;;;;;;16.53;50.60;103235.34;5060634;28;20019;-37
2022/01/17 02:55:25;;;;;;;;;;;;;;;16.52;51.36;103228.28;5064286;28;19929;-38
2022/01/17 02:57:51;;;;;;;;;;;;;;;16.51;51.44;103225.66;5063141;28;19925;-37
2022/01/17 03:00:17;;;;;;;;;;;;;;;16.50;50.77;103223.94;5064149;28;19932;-38
2022/01/17 03:02:48;;;;;;;;;;;;;;;16.49;51.04;103223.09;5062198;28;19924;-38
2022/01/17 03:05:16;;;;;;;;;;;;;;;16.49;51.00;103216.88;5062342;28;19932;-39
2022/01/17 03:07:43;;;;;;;;;;;;;;;16.48;50.39;103223.16;5066023;28;19925;-38
2022/01/17 03:10:19;;;;;;;;;;;;;;;16.46;51.39;103227.75;5062419;28;20113;-39
2022/01/17 03:12:46;;;;;;;;;;;;;;;16.46;50.82;103227.75;5064141;28;19976;-39
2022/01/17 03:15:13;;;;;;;;;;;;;;;16.45;50.61;103223.34;5067526;28;19929;-41
2022/01/17 03:17:40;;;;;;;;;;;;;;;16.44;51.29;103222.50;5063120;28;19932;-39
2022/01/17 03:20:07;;;;;;;;;;;;;;;16.45;50.35;103231.38;5065469;28;20002;-38
2022/01/17 03:22:33;;;;;;;;;;;;;;;16.42;51.42;103219.03;5062710;28;20002;-37
2022/01/17 03:25:00;;;;;;;;;;;;;;;16.44;51.24;103218.91;5064053;28;19939;-37
2022/01/17 03:27:26;;;;;;;;;;;;;;;16.44;50.79;103221.59;5064823;28;19932;-39
2022/01/17 03:29:52;;;;;;;;;;;;;;;16.40;51.10;103218.25;5065773;28;19942;-39
2022/01/17 03:32:19;;;;;;;;;;;;;;;16.40;51.16;103214.69;5064252;28;19935;-38
2022/01/17 03:34:46;;;;;;;;;;;;;;;16.40;50.65;103220.03;5067991;28;19924;-38
2022/01/17 03:37:12;;;;;;;;;;;;;;;16.38;50.60;103224.63;5064305;28;19931;-37
2022/01/17 03:39:38;;;;;;;;;;;;;;;16.38;51.19;103224.63;5061827;28;19935;-38
2022/01/17 03:42:05;;;;;;;;;;;;;;;16.37;51.18;103220.22;5067296;28;19939;-37
2022/01/17 03:44:31;;;;;;;;;;;;;;;16.36;50.83;103224.72;5065972;28;19929;-39
2022/01/17 03:46:58;;;;;;;;;;;;;;;16.35;51.31;103212.28;5065328;28;20349;-40
2022/01/17 03:49:24;;;;;;;;;;;;;;;16.34;51.33;103221.25;5063368;28;20313;-38
2022/01/17 03:51:50;;;;;;;;;;;;;;;16.33;51.24;103216.84;5065633;28;19934;-38
2022/01/17 03:54:17;;;;;;;;;;;;;;;16.34;50.51;103217.72;5064476;28;19931;-38
2022/01/17 03:56:43;;;;;;;;;;;;;;;16.31;51.28;103213.38;5063482;28;19931;-38
2022/01/17 03:59:11;;;;;;;;;;;;;;;16.32;50.62;103214.25;5061166;28;19932;-37
2022/01/17 04:01:38;;;;;;;;;;;;;;;16.29;50.67;103215.31;5062331;28;19929;-37
2022/01/17 04:04:04;;;;;;;;;;;;;;;16.29;51.20;103232.22;5066121;28;19932;-37
2022/01/17 04:06:30;;;;;;;;;;;;;;;16.28;50.99;103235.84;5065588;28;19950;-36
2022/01/17 04:08:57;;;;;;;;;;;;;;;16.27;51.52;103242.13;5064816;28;19935;-36
2022/01/17 04:11:24;;;;;;;;;;;;;;;16.27;50.80;103239.44;5059881;28;19932;-39
2022/01/17 04:13:50;;;;;;;;;;;;;;;16.28;50.63;103241.19;5066048;28;19952;-36
2022/01/17 04:16:16;;;;;;;;;;;;;;;16.28;50.68;103241.19;5061791;28;19935;-36
2022/01/17 04:18:43;;;;;;;;;;;;;;;16.28;51.87;103234.97;5060438;28;19950;-40
2022/01/17 04:21:10;;;;;;;;;;;;;;;16.29;50.81;103250.09;5065323;28;20328;-39
2022/01/17 04:23:36;;;;;;;;;;;;;;;16.28;51.66;103256.38;5066589;28;19929;-35
2022/01/17 04:26:02;;;;;;;;;;;;;;;16.27;50.96;103255.50;5067698;28;20321;-36
2022/01/17 04:28:30;;;;;;;;;;;;;;;16.27;51.01;103258.19;5068195;28;19925;-37
2022/01/17 04:30:57;;;;;;;;;;;;;;;16.28;51.54;103253.69;5064277;28;19924;-37
2022/01/17 04:33:23;;;;;;;;;;;;;;;16.27;51.48;103260.84;5068636;28;19928;-38
2022/01/17 04:35:50;;;;;;;;;;;;;;;16.28;51.62;103241.19;5067449;28;19935;-39
2022/01/17 04:38:17;;;;;;;;;;;;;;;16.35;51.51;103241.72;5067748;28;19929;-39
2022/01/17 04:40:46;;;;;;;;;;;;;;;16.43;51.11;103242.16;5067661;28;20416;-38
2022/01/17 04:43:33;;;;;;;;;;;;;;;16.52;50.62;103249.69;5066490;28;20250;-36
2022/01/17 04:45:59;;;;;;;;;;;;;;;16.63;49.95;103251.75;5063894;28;20006;-37
2022/01/17 04:48:26;;;;;;;;;;;;;;;16.71;49.86;103245.97;5072107;28;19986;-36
2022/01/17 04:50:52;;;;;;;;;;;;;;;16.79;50.51;103254.47;5065854;28;19932;-36
2022/01/17 04:53:20;;;;;;;;;;;;;;;16.86;50.36;103247.81;5064801;28;19932;-38
2022/01/17 04:55:47;;;;;;;;;;;;;;;16.94;49.41;103242.03;5067548;28;19924;-38
2022/01/17 04:58:16;;;;;;;;;;;;;;;17.03;49.71;103246.84;5065604;28;20291;-37
2022/01/17 05:00:46;;;;;;;;;;;;;;;17.10;49.16;103240.19;5072828;28;19924;-38
2022/01/17 05:03:17;;;;;;;;;;;;;;;17.18;49.97;103237.94;5068962;28;20339;-39
2022/01/17 05:05:44;;;;;;;;;;;;;;;17.26;49.36;103249.06;5066649;28;20022;-35
2022/01/17 05:08:11;;;;;;;;;;;;;;;17.35;49.10;103244.13;5063871;28;19924;-36
2022/01/17 05:10:37;;;;;;;;;;;;;;;17.43;49.10;103249.88;5062182;28;20019;-39
2022/01/17 05:13:04;;;;;;;;;;;;;;;17.48;49.60;103250.47;5067960;28;19925;-37
2022/01/17 05:15:35;;;;;;;;;;;;;;;17.53;49.48;103253.75;5064927;28;19931;-37
2022/01/17 05:20:38;;;;;;;;;;;;;;;17.59;48.99;103255.19;5068390;28;20647;-39
2022/01/17 05:23:05;;;;;;;;;;;;;;;17.61;48.32;103255.97;5068201;28;19935;-39
2022/01/17 05:25:31;;;;;;;;;;;;;;;17.62;48.67;103271.13;5063904;28;19935;-37
2022/01/17 05:27:58;;;;;;;;;;;;;;;17.60;48.30;103267.66;5067543;28;19925;-36
2022/01/17 05:30:25;;;;;;;;;;;;;;;17.58;48.74;103267.75;5065338;28;20382;-40
2022/01/17 05:32:52;;;;;;;;;;;;;;;17.55;48.36;103267.06;5064421;28;19924;-40
2022/01/17 05:35:19;;;;;;;;;;;;;;;17.51;48.91;103264.56;5067399;28;20007;-37
2022/01/17 05:37:46;;;;;;;;;;;;;;;17.46;49.18;103265.81;5066479;28;20024;-38
2022/01/17 05:40:14;;;;;;;;;;;;;;;17.43;48.96;103257.94;5066772;28;19999;-36
2022/01/17 05:42:40;;;;;;;;;;;;;;;17.38;48.74;103260.03;5068672;28;19931;-38
2022/01/17 05:45:08;;;;;;;;;;;;;;;17.32;49.05;103246.97;5060544;28;19946;-38
2022/01/17 05:47:34;;;;;;;;;;;;;;;17.28;49.44;103248.97;5067188;28;19931;-40
2022/01/17 05:50:03;;;;;;;;;;;;;;;17.24;49.18;103242.91;5065883;28;19928;-39
2022/01/17 05:52:30;;;;;;;;;;;;;;;17.19;48.75;103245.00;5063409;28;20338;-40
2022/01/17 05:54:57;;;;;;;;;;;;;;;17.16;49.08;103250.53;5069531;28;20832;-39
2022/01/17 05:57:23;;;;;;;;;;;;;;;17.14;49.67;103255.13;5065777;28;20020;-37
2022/01/17 05:59:50;;;;;;;;;;;;;;;17.10;49.31;103256.28;5059609;28;19933;-37
2022/01/17 06:02:16;;;;;;;;;;;;;;;17.07;49.10;103272.53;5065598;28;20023;-37
2022/01/17 06:04:43;;;;;;;;;;;;;;;17.05;48.93;103269.09;5068786;28;20042;-41
2022/01/17 06:07:11;;;;;;;;;;;;;;;17.00;49.71;103268.47;5065512;28;19990;-36
2022/01/17 06:09:38;;;;;;;;;;;;;;;17.00;49.78;103277.38;5067095;28;20015;-36
2022/01/17 06:12:05;;;;;;;;;;;;;;;16.96;49.72;103294.56;5065638;28;19939;-38
2022/01/17 06:14:31;;;;;;;;;;;;;;;16.94;49.23;103292.94;5063438;28;19935;-39
2022/01/17 06:16:57;;;;;;;;;;;;;;;16.92;49.29;103298.34;5061169;28;19929;-37
2022/01/17 06:19:24;;;;;;;;;;;;;;;16.91;49.54;103285.06;5064199;28;20316;-38
2022/01/17 06:21:50;;;;;;;;;;;;;;;16.90;49.51;103291.38;5064734;28;19948;-37
2022/01/17 06:24:17;;;;;;;;;;;;;;;16.86;49.74;103301.41;5068921;28;19929;-41
2022/01/17 06:26:43;;;;;;;;;;;;;;;16.85;49.73;103298.81;5062177;28;20275;-39
2022/01/17 06:29:11;;;;;;;;;;;;;;;16.82;49.50;103299.84;5066001;28;20035;-37
2022/01/17 06:31:38;;;;;;;;;;;;;;;16.79;50.06;103294.66;5061564;28;19929;-39
2022/01/17 06:34:05;;;;;;;;;;;;;;;16.78;49.94;103296.47;5065646;28;19925;-40
2022/01/17 06:36:31;;;;;;;;;;;;;;;16.77;49.96;103293.88;5063171;28;19924;-40
2022/01/17 06:38:58;;;;;;;;;;;;;;;16.76;49.99;103287.66;5066814;28;20228;-36
2022/01/17 06:41:24;;;;;;;;;;;;;;;16.74;50.06;103297.59;5061799;28;20224;-40
2022/01/17 06:43:51;;;;;;;;;;;;;;;16.72;50.39;103291.44;5061475;28;20230;-40
2022/01/17 06:46:17;;;;;;;;;;;;;;;16.71;49.59;103287.00;5061076;28;19951;-38
2022/01/17 06:48:46;;;;;;;;;;;;;;;16.70;49.47;103292.47;5065388;28;19925;-37
2022/01/17 06:51:14;;;;;;;;;;;;;;;16.69;49.88;103294.28;5064629;28;19925;-40
2022/01/17 06:53:43;;;;;;;;;;;;;;;16.68;50.52;103286.31;5067577;28;19925;-37
2022/01/17 06:56:10;;;;;;;;;;;;;;;16.66;50.11;103290.91;5063129;28;19936;-39
2022/01/17 06:58:36;;;;;;;;;;;;;;;16.63;50.04;103309.81;5066337;28;19935;-37
2022/01/17 07:01:04;;;;;;;;;;;;;;;16.62;50.23;103322.34;5062767;28;19925;-37
2022/01/17 07:03:31;;;;;;;;;;;;;;;16.62;49.70;103335.72;5065625;28;19924;-37
2022/01/17 07:05:57;;;;;;;;;;;;;;;16.60;49.91;103350.13;5062157;28;19935;-37
2022/01/17 07:08:24;;;;;;;;;;;;;;;16.58;50.88;103355.56;5061987;28;19928;-37
2022/01/17 07:10:50;;;;;;;;;;;;;;;16.58;50.13;103341.31;5062825;28;20011;-37
2022/01/17 07:13:17;;;;;;;;;;;;;;;16.58;49.69;103344.00;5063383;28;20011;-37
2022/01/17 07:15:43;;;;;;;;;;;;;;;16.55;50.09;103342.34;5063799;28;19931;-38
2022/01/17 07:18:12;;;;;;;;;;;;;;;16.56;50.16;103345.88;5064458;28;19975;-39
2022/01/17 07:20:38;;;;;;;;;;;;;;;16.54;50.38;103338.81;5064465;28;19929;-37
2022/01/17 07:23:04;;;;;;;;;;;;;;;16.53;50.75;103346.94;5061803;28;20011;-37
2022/01/17 07:25:31;;;;;;;;;;;;;;;16.51;50.83;103325.56;5063097;28;20000;-38
2022/01/17 07:27:57;;;;;;;;;;;;;;;16.52;50.08;103345.19;5062410;28;20015;-40
2022/01/17 07:30:24;;;;;;;;;;;;;;;16.52;50.65;103350.53;5062507;28;19924;-39
2022/01/17 07:32:51;;;;;;;;;;;;;;;16.51;50.89;103357.72;5063174;28;20008;-39
2022/01/17 07:35:17;;;;;;;;;;;;;;;16.53;50.12;103363.00;5064076;28;19932;-38
2022/01/17 07:37:43;;;;;;;;;;;;;;;16.53;49.97;103381.75;5063984;28;19935;-37
2022/01/17 07:40:10;;;;;;;;;;;;;;;16.54;50.90;103386.13;5069939;28;20007;-39
2022/01/17 07:42:36;;;;;;;;;;;;;;;16.53;50.87;103381.75;5061386;28;20004;-37
2022/01/17 07:45:11;;;;;;;;;;;;;;;16.53;50.71;103381.75;5059626;28;19932;-37
2022/01/17 07:50:15;;;;;;;;;;;;;;;16.51;50.57;103384.47;5065194;28;20441;-37
2022/01/17 07:52:42;;;;;;;;;;;;;;;16.51;50.39;103375.59;5058843;28;19959;-37
2022/01/17 07:55:09;;;;;;;;;;;;;;;16.51;50.41;103381.81;5063531;28;19929;-37
2022/01/17 07:57:36;;;;;;;;;;;;;;;16.50;49.99;103381.91;5067925;28;19928;-37
2022/01/17 08:00:04;;;;;;;;;;;;;;;16.50;50.34;103381.91;5066459;28;20015;-36
2022/01/17 08:02:32;;;;;;;;;;;;;;;16.48;50.38;103397.16;5069662;28;20400;-37
2022/01/17 08:04:59;;;;;;;;;;;;;;;16.46;51.00;103407.97;5069712;28;19928;-40
2022/01/17 08:07:25;;;;;;;;;;;;;;;16.46;51.08;103401.75;5066561;28;19931;-36
2022/01/17 08:09:56;;;;;;;;;;;;;;;16.44;50.67;103408.97;5067709;28;20421;-40
2022/01/17 08:12:22;;;;;;;;;;;;;;;16.43;50.64;103404.56;5066414;28;19924;-39
2022/01/17 08:14:49;;;;;;;;;;;;;;;16.42;51.04;103402.84;5067756;28;19929;-38
2022/01/17 08:17:15;;;;;;;;;;;;;;;16.41;50.11;103393.97;5072262;28;19929;-37
2022/01/17 08:19:42;;;;;;;;;;;;;;;16.40;50.31;103396.69;5065766;28;19933;-37
2022/01/17 08:22:09;;;;;;;;;;;;;;;16.39;50.19;103395.84;5067151;28;20003;-40
2022/01/17 08:24:35;;;;;;;;;;;;;;;16.39;50.34;103393.16;5067963;28;19924;-36
2022/01/17 08:27:02;;;;;;;;;;;;;;;16.40;51.04;103399.38;5068051;28;19935;-38
2022/01/17 08:29:29;;;;;;;;;;;;;;;16.39;50.76;103392.28;5066213;28;19928;-37
2022/01/17 08:31:56;;;;;;;;;;;;;;;16.37;50.81;103388.84;5065670;28;20201;-36
2022/01/17 08:34:23;;;;;;;;;;;;;;;16.38;50.31;103398.59;5069890;28;19924;-38
2022/01/17 08:36:49;;;;;;;;;;;;;;;16.38;51.23;103398.59;5064107;28;20328;-40
2022/01/17 08:39:16;;;;;;;;;;;;;;;16.38;51.11;103395.94;5067327;28;19928;-37
2022/01/17 08:41:42;;;;;;;;;;;;;;;16.37;50.85;103388.84;5064264;28;19932;-38
2022/01/17 08:44:13;;;;;;;;;;;;;;;16.37;50.18;103394.22;5071093;28;19924;-37
2022/01/17 08:46:40;;;;;;;;;;;;;;;16.37;51.01;103394.22;5068699;28;19935;-37
2022/01/17 08:49:06;;;;;;;;;;;;;;;16.37;50.80;103394.22;5065175;28;19932;-38
2022/01/17 08:51:33;;;;;;;;;;;;;;;16.36;50.96;103393.34;5064024;28;19943;-37
2022/01/17 08:53:59;;;;;;;;;;;;;;;16.36;50.11;103396.03;5067171;28;19947;-37
2022/01/17 08:56:28;;;;;;;;;;;;;;;16.36;50.32;103401.38;5067165;28;20031;-39
2022/01/17 08:58:55;;;;;;;;;;;;;;;16.36;50.57;103403.16;5062870;28;20007;-39
2022/01/17 09:01:23;;;;;;;;;;;;;;;16.37;50.46;103404.91;5068099;28;19928;-40
2022/01/17 09:03:50;;;;;;;;;;;;;;;16.37;51.12;103404.91;5066788;28;20031;-38
2022/01/17 09:06:16;;;;;;;;;;;;;;;16.38;51.15;103403.97;5065407;28;20198;-37
2022/01/17 09:08:43;;;;;;;;;;;;;;;16.37;51.21;103403.09;5066457;28;19925;-40
2022/01/17 09:11:10;;;;;;;;;;;;;;;16.38;51.08;103406.63;5063967;28;20040;-40
2022/01/17 09:13:36;;;;;;;;;;;;;;;16.38;50.75;103406.63;5068536;28;20043;-40
2022/01/17 09:16:03;;;;;;;;;;;;;;;16.38;51.02;103423.56;5065456;28;19972;-41
2022/01/17 09:18:30;;;;;;;;;;;;;;;16.39;51.06;103424.41;5066490;28;19958;-40
2022/01/17 09:20:56;;;;;;;;;;;;;;;16.39;51.05;103435.97;5063751;28;19928;-38
2022/01/17 09:23:23;;;;;;;;;;;;;;;16.39;50.74;103445.81;5062380;28;19924;-38
2022/01/17 09:25:51;;;;;;;;;;;;;;;16.40;50.15;103442.19;5064493;28;19932;-38
2022/01/17 09:28:17;;;;;;;;;;;;;;;16.39;50.35;103452.03;5070404;28;20019;-38
2022/01/17 09:30:43;;;;;;;;;;;;;;;16.41;51.18;103449.31;5065136;28;19928;-39
2022/01/17 09:33:10;;;;;;;;;;;;;;;16.42;50.75;103451.91;5065681;28;19935;-40
2022/01/17 09:35:37;;;;;;;;;;;;;;;16.42;50.88;103451.03;5064676;28;19931;-38
2022/01/17 09:38:03;;;;;;;;;;;;;;;16.42;50.38;103454.56;5066105;28;20020;-39
2022/01/17 09:40:30;;;;;;;;;;;;;;;16.43;50.80;103458.97;5065910;28;19931;-36
2022/01/17 09:42:58;;;;;;;;;;;;;;;16.44;50.74;103449.13;5068706;28;20243;-39
2022/01/17 09:45:25;;;;;;;;;;;;;;;16.46;50.69;103460.63;5066626;28;19924;-39
2022/01/17 09:47:52;;;;;;;;;;;;;;;16.45;50.53;103478.50;5064755;28;19925;-41
2022/01/17 09:50:21;;;;;;;;;;;;;;;16.46;50.61;103468.66;5064495;28;19929;-40
2022/01/17 09:52:49;;;;;;;;;;;;;;;16.46;50.76;103469.53;5062238;28;20240;-40
2022/01/17 09:55:21;;;;;;;;;;;;;;;16.46;50.34;103471.34;5064596;28;20014;-37
2022/01/17 09:57:50;;;;;;;;;;;;;;;16.48;50.38;103481.03;5064460;28;19939;-38
2022/01/17 10:00:17;;;;;;;;;;;;;;;16.47;50.27;103471.25;5061001;28;19945;-40
2022/01/17 10:02:43;;;;;;;;;;;;;;;16.49;50.21;103481.91;5065931;28;19932;-39
2022/01/17 10:05:13;;;;;;;;;;;;;;;16.49;50.19;103480.09;5063361;28;20340;-41
2022/01/17 10:08:04;;;;;;;;;;;;;;;16.49;50.45;103472.06;5060970;28;20374;-39
2022/01/17 10:10:33;;;;;;;;;;;;;;;16.51;49.80;103490.69;5060323;28;19972;-40
2022/01/17 10:13:03;;;;;;;;;;;;;;;16.51;50.41;103491.56;5059797;28;20015;-38
2022/01/17 10:15:43;;;;;;;;;;;;;;;16.52;50.46;103493.31;5069311;28;20701;-38
2022/01/17 10:18:22;;;;;;;;;;;;;;;16.53;49.81;103496.88;5062839;28;20014;-40
2022/01/17 10:20:54;;;;;;;;;;;;;;;16.52;50.25;103498.69;5061225;28;19939;-42
2022/01/17 10:23:39;;;;;;;;;;;;;;;16.53;50.16;103502.22;5060296;28;20321;-39
2022/01/17 10:26:13;;;;;;;;;;;;;;;16.52;50.39;103504.03;5060817;28;19925;-41
2022/01/17 10:29:10;;;;;;;;;;;;;;;16.53;50.46;103520.97;5065760;28;20216;-39
2022/01/17 10:37:08;;;;;;;;;;;;;;;16.53;49.88;103526.31;5060801;28;20295;-39
2022/01/17 10:39:37;;;;;;;;;;;;;;;16.52;50.45;103535.25;5064937;28;19931;-39
2022/01/17 10:42:21;;;;;;;;;;;;;;;16.54;50.33;103528.03;5062219;28;20019;-37
2022/01/17 10:44:48;;;;;;;;;;;;;;;16.53;49.96;103519.13;5064814;28;20414;-40
2022/01/17 10:47:20;;;;;;;;;;;;;;;16.53;50.19;103510.25;5061863;28;19932;-40
2022/01/17 10:49:52;;;;;;;;;;;;;;;16.55;50.62;103511.03;5065647;28;19924;-37
2022/01/17 10:52:28;;;;;;;;;;;;;;;16.54;50.56;103504.81;5059875;28;20016;-43
2022/01/17 10:54:56;;;;;;;;;;;;;;;16.55;49.78;103503.00;5065046;28;19931;-41
2022/01/17 10:57:23;;;;;;;;;;;;;;;16.56;50.43;103514.56;5058651;28;20011;-41
2022/01/17 10:59:51;;;;;;;;;;;;;;;16.55;49.69;103511.03;5063810;28;19939;-37
2022/01/17 11:02:18;;;;;;;;;;;;;;;16.58;49.35;103523.41;5062018;28;20055;-37
2022/01/17 11:04:47;;;;;;;;;;;;;;;16.57;50.12;103516.31;5063560;28;20015;-40
2022/01/17 11:07:14;;;;;;;;;;;;;;;16.58;49.83;103529.59;5063160;28;20214;-38
2022/01/17 11:09:47;;;;;;;;;;;;;;;16.59;50.27;103534.00;5064559;28;20390;-40
2022/01/17 11:12:14;;;;;;;;;;;;;;;16.59;50.05;103539.38;5068229;28;19934;-39
2022/01/17 11:14:42;;;;;;;;;;;;;;;16.60;49.34;103550.94;5067053;28;20178;-37
2022/01/17 11:17:20;;;;;;;;;;;;;;;16.67;50.55;103547.88;5058967;28;19932;-40
2022/01/17 11:20:07;;;;;;;;;;;;;;;16.73;49.82;103536.03;5066604;28;20489;-40
2022/01/17 11:22:34;;;;;;;;;;;;;;;16.83;50.17;103541.78;5062469;28;20415;-39
2022/01/17 11:25:02;;;;;;;;;;;;;;;16.92;49.30;103538.59;5062762;28;20416;-35
2022/01/17 11:27:29;;;;;;;;;;;;;;;17.02;49.59;103535.38;5064671;28;19932;-35
2022/01/17 11:29:55;;;;;;;;;;;;;;;17.11;49.78;103541.19;5072098;28;19924;-36
2022/01/17 11:32:22;;;;;;;;;;;;;;;17.19;49.84;103542.50;5069357;28;19972;-36
2022/01/17 11:34:51;;;;;;;;;;;;;;;17.28;48.81;103547.34;5060845;28;20007;-36
2022/01/17 11:37:18;;;;;;;;;;;;;;;17.38;49.12;103549.56;5063535;28;19928;-36
2022/01/17 11:39:52;;;;;;;;;;;;;;;17.45;49.14;103541.09;5065250;28;19928;-36
2022/01/17 11:42:36;;;;;;;;;;;;;;;17.52;48.34;103545.16;5062872;28;20213;-36
2022/01/17 11:45:23;;;;;;;;;;;;;;;17.60;48.62;103547.41;5063265;28;19928;-36
2022/01/17 11:48:12;;;;;;;;;;;;;;;17.68;48.43;103549.69;5049800;28;19935;-35
2022/01/17 11:50:43;;;;;;;;;;;;;;;17.73;48.46;103553.84;5067560;28;19970;-36
2022/01/17 11:53:09;;;;;;;;;;;;;;;17.80;47.98;103572.31;5063490;28;19998;-35
2022/01/17 11:55:42;;;;;;;;;;;;;;;17.84;48.38;103582.78;5061473;28;20062;-36
2022/01/17 11:58:27;;;;;;;;;;;;;;;17.89;48.47;103585.19;5062193;28;20019;-36
2022/01/17 12:00:59;;;;;;;;;;;;;;;17.94;48.16;103581.31;5057848;28;19933;-38
2022/01/17 12:03:27;;;;;;;;;;;;;;;18.00;48.09;103580.09;5063076;28;20035;-36
2022/01/17 12:05:54;;;;;;;;;;;;;;;18.04;48.05;103592.41;5064948;28;19925;-36
2022/01/17 12:08:22;;;;;;;;;;;;;;;18.08;48.01;103585.91;5057076;28;20011;-36
2022/01/17 12:10:50;;;;;;;;;;;;;;;18.11;48.10;103583.06;5060102;28;20388;-35
2022/01/17 12:13:22;;;;;;;;;;;;;;;18.15;48.08;103573.00;5058325;28;20235;-37
2022/01/17 12:15:54;;;;;;;;;;;;;;;18.18;47.77;103573.69;5061538;28;20003;-36
2022/01/17 12:18:28;;;;;;;;;;;;;;;18.21;47.92;103569.94;5056513;28;20020;-36
2022/01/17 12:20:55;;;;;;;;;;;;;;;18.25;47.77;103558.97;5061649;28;19925;-37
2022/01/17 12:23:26;;;;;;;;;;;;;;;18.29;47.90;103548.03;5063581;28;19935;-37
2022/01/17 12:25:53;;;;;;;;;;;;;;;18.32;47.54;103537.13;5058860;28;19971;-38
2022/01/17 12:28:19;;;;;;;;;;;;;;;18.35;47.48;103547.69;5060133;28;20364;-38
2022/01/17 12:30:51;;;;;;;;;;;;;;;18.37;47.71;103549.34;5060451;28;19932;-36
2022/01/17 12:33:34;;;;;;;;;;;;;;;18.40;47.68;103564.41;5059790;28;19929;-37
2022/01/17 12:36:02;;;;;;;;;;;;;;;18.43;47.85;103583.88;5064543;28;19930;-37
2022/01/17 12:38:37;;;;;;;;;;;;;;;18.46;47.53;103594.44;5059618;28;20305;-37
2022/01/17 12:41:04;;;;;;;;;;;;;;;18.48;47.58;103591.66;5060679;28;19928;-36
2022/01/17 12:43:32;;;;;;;;;;;;;;;18.52;47.34;103593.22;5069072;28;19932;-37
2022/01/17 12:46:03;;;;;;;;;;;;;;;18.54;47.62;103606.56;5064153;28;19935;-38
2022/01/17 12:48:31;;;;;;;;;;;;;;;18.57;47.66;103609.06;5067527;28;19939;-37
2022/01/17 12:51:00;;;;;;;;;;;;;;;18.58;47.69;103609.00;5067261;28;20224;-37
2022/01/17 12:53:27;;;;;;;;;;;;;;;18.61;47.41;103581.06;5063307;28;19933;-36
2022/01/17 12:55:55;;;;;;;;;;;;;;;18.63;47.33;103563.91;5063415;28;19924;-36
2022/01/17 12:58:23;;;;;;;;;;;;;;;18.66;47.26;103550.31;5063437;28;19929;-37
2022/01/17 13:00:54;;;;;;;;;;;;;;;18.68;47.54;103552.88;5065202;28;19929;-40
2022/01/17 13:03:23;;;;;;;;;;;;;;;18.70;47.35;103553.72;5066712;28;20396;-36